createdAt,value
2023-03-17T00:01:55.013Z,95221.31
2023-03-17T00:04:25.268Z,95186.22
2023-03-17T00:06:54.021Z,95223.44
2023-03-17T00:09:23.191Z,95222.66
2023-03-17T00:11:51.783Z,95226.06
2023-03-17T00:14:20.888Z,95220.16
2023-03-17T00:16:51.115Z,95219.97
2023-03-17T00:19:26.693Z,95158.97
2023-03-17T00:21:55.083Z,95225.28
2023-03-17T00:24:23.467Z,95207.69
2023-03-17T00:26:51.746Z,95221.25
2023-03-17T00:29:20.160Z,95225.28
2023-03-17T00:31:49.505Z,95219.56
2023-03-17T00:34:21.558Z,95210.72
2023-03-17T00:36:52.045Z,95197.69
2023-03-17T00:39:20.911Z,95194.16
2023-03-17T00:41:49.247Z,95199.38
2023-03-17T00:44:17.573Z,95216.91
2023-03-17T00:46:46.658Z,95222.25
2023-03-17T00:51:46.796Z,95231.31
2023-03-17T00:54:15.725Z,95220.81
2023-03-17T00:56:45.491Z,95224.97
2023-03-17T00:59:21.894Z,95229.34
2023-03-17T01:01:50.328Z,95234.75
2023-03-17T01:04:19.699Z,95224.50
2023-03-17T01:06:50.756Z,95242.47
2023-03-17T01:09:20.495Z,95188.50
2023-03-17T01:11:49.357Z,95239.16
2023-03-17T01:14:18.197Z,95243.19
2023-03-17T01:16:47.878Z,95245.06
2023-03-17T01:19:17.197Z,95245.63
2023-03-17T01:21:45.782Z,95246.59
2023-03-17T01:24:15.788Z,95202.25
2023-03-17T01:26:44.738Z,95237.19
2023-03-17T01:29:14.032Z,95182.00
2023-03-17T01:31:42.421Z,95249.78
2023-03-17T01:34:11.712Z,95260.31
2023-03-17T01:36:41.416Z,95254.69
2023-03-17T01:39:09.639Z,95256.06
2023-03-17T01:41:40.344Z,95256.09
2023-03-17T01:44:10.937Z,95256.56
2023-03-17T01:46:39.216Z,95258.09
2023-03-17T01:49:13.480Z,95271.75
2023-03-17T01:51:50.436Z,95269.50
2023-03-17T01:54:24.353Z,95215.63
2023-03-17T01:56:57.580Z,95278.88
2023-03-17T01:59:30.053Z,95277.34
2023-03-17T02:02:04.683Z,95273.28
2023-03-17T02:04:34.209Z,95279.47
2023-03-17T02:07:05.261Z,95280.28
2023-03-17T02:09:35.015Z,95281.94
2023-03-17T02:12:05.916Z,95264.78
2023-03-17T02:14:34.288Z,95286.03
2023-03-17T02:17:02.845Z,95289.75
2023-03-17T02:19:31.276Z,95295.50
2023-03-17T02:22:02.769Z,95267.69
2023-03-17T02:24:35.979Z,95291.25
2023-03-17T02:27:09.793Z,95296.38
2023-03-17T02:29:38.140Z,95295.78
2023-03-17T02:32:07.719Z,95295.09
2023-03-17T02:34:36.115Z,95302.03
2023-03-17T02:37:06.402Z,95192.72
2023-03-17T02:39:34.840Z,95308.91
2023-03-17T02:42:03.802Z,95308.69
2023-03-17T02:44:32.224Z,95309.53
2023-03-17T02:47:01.126Z,95306.84
2023-03-17T02:49:30.756Z,95313.94
2023-03-17T02:51:59.186Z,95318.97
2023-03-17T02:54:29.041Z,95317.13
2023-03-17T02:56:57.372Z,95319.69
2023-03-17T02:59:25.925Z,95316.88
2023-03-17T03:01:54.254Z,95328.31
2023-03-17T03:04:22.516Z,95327.91
2023-03-17T03:06:51.254Z,95332.13
2023-03-17T03:09:19.567Z,95323.81
2023-03-17T03:11:49.550Z,95344.56
2023-03-17T03:14:17.784Z,95330.72
2023-03-17T03:16:47.032Z,95343.78
2023-03-17T03:19:15.247Z,95336.72
2023-03-17T03:21:43.857Z,95320.31
2023-03-17T03:24:12.206Z,95339.25
2023-03-17T03:26:40.507Z,95344.97
2023-03-17T03:29:10.563Z,95343.22
2023-03-17T03:31:38.858Z,95344.91
2023-03-17T03:34:07.398Z,95350.81
2023-03-17T03:36:35.739Z,95353.75
2023-03-17T03:39:04.040Z,95343.16
2023-03-17T03:41:32.381Z,95348.09
2023-03-17T03:44:00.638Z,95320.25
2023-03-17T03:46:30.324Z,95356.06
2023-03-17T03:48:58.641Z,95352.16
2023-03-17T03:51:27.205Z,95355.44
2023-03-17T03:53:55.527Z,95361.13
2023-03-17T03:56:23.867Z,95365.59
2023-03-17T03:58:52.563Z,95359.69
2023-03-17T04:01:24.725Z,95368.72
2023-03-17T04:03:54.442Z,95363.50
2023-03-17T04:06:22.688Z,95360.13
2023-03-17T04:08:50.993Z,95381.75
2023-03-17T04:11:19.390Z,95375.03
2023-03-17T04:13:47.779Z,95384.22
2023-03-17T04:16:16.393Z,95374.34
2023-03-17T04:18:44.827Z,95377.84
2023-03-17T04:21:18.539Z,95362.63
2023-03-17T04:23:47.432Z,95390.56
2023-03-17T04:26:17.504Z,95375.91
2023-03-17T04:28:46.139Z,95394.34
2023-03-17T04:31:14.589Z,95400.56
2023-03-17T04:33:43.302Z,95396.59
2023-03-17T04:36:19.473Z,95394.00
2023-03-17T04:38:47.835Z,95395.22
2023-03-17T04:41:16.171Z,95407.78
2023-03-17T04:43:44.483Z,95413.41
2023-03-17T04:46:12.865Z,95414.03
2023-03-17T04:48:41.543Z,95412.13
2023-03-17T04:51:11.633Z,95421.69
2023-03-17T04:53:41.594Z,95426.59
2023-03-17T04:56:10.268Z,95401.13
2023-03-17T04:58:38.761Z,95412.84
2023-03-17T05:01:07.457Z,95249.41
2023-03-17T05:03:36.576Z,95436.00
2023-03-17T05:06:05.762Z,95393.41
2023-03-17T05:08:34.156Z,95435.66
2023-03-17T05:11:03.849Z,95448.78
2023-03-17T05:13:32.391Z,95451.81
2023-03-17T05:16:01.604Z,95462.16
2023-03-17T05:18:30.262Z,95455.09
2023-03-17T05:20:58.608Z,95457.25
2023-03-17T05:23:27.796Z,95467.38
2023-03-17T05:25:56.223Z,95470.06
2023-03-17T05:28:26.846Z,95467.91
2023-03-17T05:30:55.603Z,95466.63
2023-03-17T05:33:24.431Z,95468.38
2023-03-17T05:35:52.889Z,95464.13
2023-03-17T05:38:21.294Z,95475.00
2023-03-17T05:40:51.885Z,95480.28
2023-03-17T05:43:20.469Z,95474.94
2023-03-17T05:45:50.794Z,95485.63
2023-03-17T05:48:19.912Z,95489.78
2023-03-17T05:50:48.343Z,95490.75
2023-03-17T05:53:17.567Z,95432.94
2023-03-17T05:55:45.955Z,95489.75
2023-03-17T05:58:15.852Z,95496.41
2023-03-17T06:00:45.387Z,95496.31
2023-03-17T06:03:15.419Z,95471.47
2023-03-17T06:05:43.768Z,95453.34
2023-03-17T06:08:12.299Z,95493.28
2023-03-17T06:10:41.461Z,95509.63
2023-03-17T06:13:09.813Z,95492.88
2023-03-17T06:15:38.206Z,95499.13
2023-03-17T06:18:06.771Z,95499.94
2023-03-17T06:20:36.808Z,95503.91
2023-03-17T06:23:05.812Z,95497.91
2023-03-17T06:25:35.189Z,95511.94
2023-03-17T06:28:04.204Z,95506.16
2023-03-17T06:30:33.088Z,95508.63
2023-03-17T06:33:02.197Z,95478.88
2023-03-17T06:35:31.826Z,95476.34
2023-03-17T06:38:02.460Z,95453.81
2023-03-17T06:40:31.207Z,95507.31
2023-03-17T06:42:59.810Z,95519.25
2023-03-17T06:45:28.400Z,95515.25
2023-03-17T06:47:57.187Z,95518.22
2023-03-17T06:50:25.868Z,95504.13
2023-03-17T06:52:54.450Z,95508.81
2023-03-17T06:55:24.186Z,95517.06
2023-03-17T06:57:52.628Z,95495.69
2023-03-17T07:00:22.639Z,95509.38
2023-03-17T07:02:51.367Z,95506.25
2023-03-17T07:05:19.631Z,95520.16
2023-03-17T07:07:47.937Z,95504.28
2023-03-17T07:10:17.449Z,95501.63
2023-03-17T07:12:47.200Z,95513.59
2023-03-17T07:15:17.462Z,95495.88
2023-03-17T07:17:46.904Z,95515.00
2023-03-17T07:20:15.267Z,95518.31
2023-03-17T07:22:43.683Z,95434.91
2023-03-17T07:25:12.037Z,95521.03
2023-03-17T07:27:40.481Z,95526.59
2023-03-17T07:30:11.753Z,95514.69
2023-03-17T07:32:41.854Z,95522.34
2023-03-17T07:35:10.857Z,95522.13
2023-03-17T07:37:39.285Z,95520.91
2023-03-17T07:40:09.318Z,95524.59
2023-03-17T07:42:37.758Z,95521.38
2023-03-17T07:45:08.110Z,95515.16
2023-03-17T07:47:37.819Z,95481.25
2023-03-17T07:50:06.873Z,95528.00
2023-03-17T07:52:35.667Z,95513.88
2023-03-17T07:55:04.132Z,95459.06
2023-03-17T07:57:32.802Z,95516.25
2023-03-17T08:00:01.406Z,95517.16
2023-03-17T08:02:30.025Z,95511.63
2023-03-17T08:04:59.746Z,95516.41
2023-03-17T08:07:28.083Z,95496.69
2023-03-17T08:09:56.510Z,95511.53
2023-03-17T08:12:24.809Z,95519.38
2023-03-17T08:14:53.192Z,95519.66
2023-03-17T08:17:21.595Z,95476.47
2023-03-17T08:19:50.707Z,95506.88
2023-03-17T08:22:20.588Z,95513.13
2023-03-17T08:24:48.998Z,95512.63
2023-03-17T08:27:17.454Z,95503.63
2023-03-17T08:29:46.078Z,95501.06
2023-03-17T08:32:15.148Z,95514.78
2023-03-17T08:34:44.529Z,95469.81
2023-03-17T08:37:12.949Z,95513.44
2023-03-17T08:39:42.635Z,95503.09
2023-03-17T08:42:10.996Z,95512.91
2023-03-17T08:44:39.312Z,95517.50
2023-03-17T08:47:07.798Z,95517.78
2023-03-17T08:49:36.711Z,95508.66
2023-03-17T08:52:05.099Z,95512.44
2023-03-17T08:54:33.461Z,95522.84
2023-03-17T08:57:04.191Z,95514.03
2023-03-17T08:59:32.951Z,95496.25
2023-03-17T09:02:01.227Z,95500.41
2023-03-17T09:04:29.581Z,95505.41
2023-03-17T09:07:05.774Z,95494.16
2023-03-17T09:09:35.770Z,95482.13
2023-03-17T09:12:07.098Z,95503.00
2023-03-17T09:14:43.512Z,95512.41
2023-03-17T09:17:14.068Z,95457.81
2023-03-17T09:19:43.577Z,95513.28
2023-03-17T09:22:14.842Z,95506.28
2023-03-17T09:24:43.429Z,95507.84
2023-03-17T09:27:13.734Z,95514.19
2023-03-17T09:29:43.390Z,95505.75
2023-03-17T09:32:11.699Z,95502.50
2023-03-17T09:34:40.034Z,95511.56
2023-03-17T09:37:09.929Z,95470.63
2023-03-17T09:39:38.287Z,95502.34
2023-03-17T09:42:33.479Z,95513.72
2023-03-17T09:45:17.876Z,95500.13
2023-03-17T09:47:58.509Z,95477.38
2023-03-17T09:50:30.468Z,95486.78
2023-03-17T09:53:03.723Z,95489.47
2023-03-17T09:55:34.077Z,95485.78
2023-03-17T09:58:05.007Z,95477.94
2023-03-17T10:00:34.805Z,95378.53
2023-03-17T10:03:03.624Z,95483.03
2023-03-17T10:05:36.206Z,95478.31
2023-03-17T10:08:28.875Z,95486.69
2023-03-17T10:11:03.466Z,95479.16
2023-03-17T10:13:48.606Z,95479.53
2023-03-17T10:16:20.890Z,95468.63
2023-03-17T10:18:55.622Z,95473.03
2023-03-17T10:21:28.250Z,95468.66
2023-03-17T10:23:57.666Z,95454.06
2023-03-17T10:26:31.431Z,95473.63
2023-03-17T10:29:04.238Z,95467.66
2023-03-17T10:31:35.702Z,95462.50
2023-03-17T10:34:14.728Z,95459.31
2023-03-17T10:36:45.982Z,95457.66
2023-03-17T10:39:16.362Z,95473.66
2023-03-17T10:41:54.144Z,95470.56
2023-03-17T10:44:34.902Z,95472.97
2023-03-17T10:47:03.831Z,95468.44
2023-03-17T10:49:37.200Z,95466.59
2023-03-17T10:52:09.250Z,95458.28
2023-03-17T10:54:39.395Z,95455.56
2023-03-17T10:57:10.790Z,95442.16
2023-03-17T10:59:44.901Z,95447.00
2023-03-17T11:02:22.144Z,95452.25
2023-03-17T11:04:50.573Z,95446.22
2023-03-17T11:07:21.437Z,95454.13
2023-03-17T11:09:51.751Z,95397.91
2023-03-17T11:12:27.170Z,95443.97
2023-03-17T11:15:03.500Z,95461.13
2023-03-17T11:17:41.564Z,95453.31
2023-03-17T11:20:26.546Z,95449.91
2023-03-17T11:23:02.329Z,95424.63
2023-03-17T11:25:34.555Z,95464.53
2023-03-17T11:28:16.980Z,95452.09
2023-03-17T11:30:53.847Z,95456.63
2023-03-17T11:33:35.513Z,95451.34
2023-03-17T11:36:12.115Z,95454.94
2023-03-17T11:38:51.024Z,95468.34
2023-03-17T11:41:42.579Z,95460.47
2023-03-17T11:44:30.528Z,95462.50
2023-03-17T11:47:09.224Z,95469.72
2023-03-17T11:49:38.981Z,95455.06
2023-03-17T11:52:22.146Z,95409.28
2023-03-17T11:55:00.199Z,95411.91
2023-03-17T11:57:35.087Z,95463.53
2023-03-17T12:00:07.257Z,95459.16
2023-03-17T12:02:42.855Z,95461.66
2023-03-17T12:05:15.498Z,95462.06
2023-03-17T12:07:48.248Z,95410.44
2023-03-17T12:10:23.827Z,95461.19
2023-03-17T12:12:57.330Z,95474.72
2023-03-17T12:15:31.662Z,95452.81
2023-03-17T12:18:07.056Z,95456.09
2023-03-17T12:20:46.879Z,95458.75
2023-03-17T12:23:29.452Z,95461.03
2023-03-17T12:26:03.964Z,95455.44
2023-03-17T12:28:38.081Z,95457.72
2023-03-17T12:31:09.175Z,95457.28
2023-03-17T12:33:45.198Z,95452.84
2023-03-17T12:36:17.235Z,95441.31
2023-03-17T12:38:50.082Z,95452.88
2023-03-17T12:41:35.193Z,95430.97
2023-03-17T12:44:09.260Z,95440.53
2023-03-17T12:47:13.904Z,95442.47
2023-03-17T12:50:11.143Z,95463.94
2023-03-17T12:53:07.420Z,95460.19
2023-03-17T12:55:37.158Z,95469.63
2023-03-17T12:58:08.239Z,95461.94
2023-03-17T13:00:50.836Z,95464.94
2023-03-17T13:03:24.741Z,95469.78
2023-03-17T13:06:00.151Z,95470.88
2023-03-17T13:08:32.135Z,95457.31
2023-03-17T13:11:18.678Z,95473.72
2023-03-17T13:13:59.229Z,95473.13
2023-03-17T13:16:32.319Z,95430.50
2023-03-17T13:19:17.696Z,95469.31
2023-03-17T13:21:52.415Z,95483.34
2023-03-17T13:24:36.109Z,95478.25
2023-03-17T13:27:05.676Z,95475.59
2023-03-17T13:29:48.790Z,95482.06
2023-03-17T13:32:35.666Z,95481.16
2023-03-17T13:35:41.153Z,95484.66
2023-03-17T13:38:28.081Z,95485.25
2023-03-17T13:41:16.948Z,95483.59
2023-03-17T13:43:57.005Z,95486.19
2023-03-17T13:46:35.219Z,95399.94
2023-03-17T13:49:16.745Z,95492.91
2023-03-17T13:51:59.092Z,95483.06
2023-03-17T13:54:35.535Z,95308.03
2023-03-17T13:57:24.340Z,95490.47
2023-03-17T14:00:14.952Z,95475.66
2023-03-17T14:02:49.046Z,95489.22
2023-03-17T14:05:25.713Z,95490.88
2023-03-17T14:07:58.358Z,95446.88
2023-03-17T14:10:31.091Z,95486.56
2023-03-17T14:13:04.541Z,95490.28
2023-03-17T14:15:42.180Z,95487.28
2023-03-17T14:18:16.791Z,95497.09
2023-03-17T14:20:54.539Z,95400.59
2023-03-17T14:23:24.068Z,95501.59
2023-03-17T14:25:57.114Z,95505.56
2023-03-17T14:28:29.034Z,95495.22
2023-03-17T14:31:00.649Z,95484.16
2023-03-17T14:33:31.081Z,95511.88
2023-03-17T14:36:01.290Z,95514.22
2023-03-17T14:38:32.174Z,95515.09
2023-03-17T14:41:06.797Z,95513.66
2023-03-17T14:43:36.947Z,95497.31
2023-03-17T14:46:06.817Z,95520.94
2023-03-17T14:48:37.194Z,95517.72
2023-03-17T14:51:09.779Z,95520.03
2023-03-17T14:53:43.271Z,95519.59
2023-03-17T14:56:13.672Z,95526.00
2023-03-17T14:58:44.238Z,95520.91
2023-03-17T15:01:17.661Z,95522.00
2023-03-17T15:03:56.580Z,95522.00
2023-03-17T15:06:27.258Z,95534.31
2023-03-17T15:08:56.022Z,95534.22
2023-03-17T15:11:28.412Z,95533.59
2023-03-17T15:14:05.074Z,95536.38
2023-03-17T15:16:36.768Z,95405.09
2023-03-17T15:19:08.712Z,95533.63
2023-03-17T15:21:41.293Z,95521.34
2023-03-17T15:24:29.726Z,95538.13
2023-03-17T15:27:04.919Z,95427.81
2023-03-17T15:29:33.281Z,95524.28
2023-03-17T15:32:13.844Z,95538.91
2023-03-17T15:34:42.682Z,95535.97
2023-03-17T15:37:19.429Z,95542.34
2023-03-17T15:39:48.204Z,95541.50
2023-03-17T15:42:21.939Z,95486.38
2023-03-17T15:44:50.297Z,95540.59
2023-03-17T15:47:21.042Z,95546.41
2023-03-17T15:49:50.860Z,95550.69
2023-03-17T15:52:23.119Z,95556.41
2023-03-17T15:54:51.593Z,95552.88
2023-03-17T15:57:21.400Z,95560.59
2023-03-17T15:59:49.684Z,95568.59
2023-03-17T16:02:29.144Z,95562.50
2023-03-17T16:04:58.498Z,95544.47
2023-03-17T16:07:27.381Z,95563.28
2023-03-17T16:09:55.984Z,95567.00
2023-03-17T16:12:26.166Z,95563.53
2023-03-17T16:14:54.440Z,95583.41
2023-03-17T16:17:29.137Z,95548.41
2023-03-17T16:19:58.253Z,95585.31
2023-03-17T16:22:39.575Z,95588.22
2023-03-17T16:25:19.972Z,95593.53
2023-03-17T16:27:50.506Z,95591.97
2023-03-17T16:30:21.486Z,95592.47
2023-03-17T16:32:50.301Z,95600.44
2023-03-17T16:35:20.646Z,95579.34
2023-03-17T16:37:49.309Z,95594.56
2023-03-17T16:40:20.290Z,95586.31
2023-03-17T16:42:50.560Z,95591.91
2023-03-17T16:45:23.459Z,95601.94
2023-03-17T16:47:51.704Z,95611.03
2023-03-17T16:50:21.909Z,95608.13
2023-03-17T16:52:50.393Z,95611.06
2023-03-17T16:55:20.694Z,95627.50
2023-03-17T16:57:53.551Z,95590.88
2023-03-17T17:00:25.000Z,95624.03
2023-03-17T17:02:54.089Z,95627.22
2023-03-17T17:05:24.855Z,95612.03
2023-03-17T17:07:56.160Z,95634.84
2023-03-17T17:10:26.918Z,95622.69
2023-03-17T17:12:56.860Z,95440.78
2023-03-17T17:15:25.453Z,95617.41
2023-03-17T17:17:59.178Z,95622.47
2023-03-17T17:20:30.936Z,95628.31
2023-03-17T17:23:00.495Z,95632.28
2023-03-17T17:25:29.558Z,95638.13
2023-03-17T17:27:59.922Z,95628.00
2023-03-17T17:30:31.514Z,95624.06
2023-03-17T17:33:01.582Z,95535.94
2023-03-17T17:35:33.156Z,95644.75
2023-03-17T17:38:02.738Z,95587.72
2023-03-17T17:40:31.656Z,95641.81
2023-03-17T17:43:02.340Z,95608.13
2023-03-17T17:45:30.799Z,95644.22
2023-03-17T17:47:59.155Z,95593.00
2023-03-17T17:50:29.881Z,95591.97
2023-03-17T17:53:04.998Z,95617.69
2023-03-17T17:55:34.678Z,95648.72
2023-03-17T17:58:04.756Z,95602.56
2023-03-17T18:00:33.709Z,95675.78
2023-03-17T18:03:02.570Z,95655.63
2023-03-17T18:05:32.331Z,95656.97
2023-03-17T18:08:02.526Z,95667.31
2023-03-17T18:10:32.098Z,95669.97
2023-03-17T18:15:48.332Z,95619.53
2023-03-17T18:18:16.720Z,95670.22
2023-03-17T18:20:45.083Z,95674.75
2023-03-17T18:23:13.465Z,95675.56
2023-03-17T18:25:41.793Z,95668.91
2023-03-17T18:28:10.098Z,95676.06
2023-03-17T18:30:38.837Z,95672.63
2023-03-17T18:33:12.105Z,95664.66
2023-03-17T18:35:41.325Z,95662.28
2023-03-17T18:38:09.661Z,95675.75
2023-03-17T18:40:38.053Z,95672.03
2023-03-17T18:43:06.721Z,95673.66
2023-03-17T18:45:35.104Z,95681.06
2023-03-17T18:48:03.532Z,95657.19
2023-03-17T18:50:33.596Z,95675.19
2023-03-17T18:53:02.667Z,95645.75
2023-03-17T18:55:34.739Z,95656.97
2023-03-17T18:58:03.267Z,95629.53
2023-03-17T19:00:31.885Z,95658.25
2023-03-17T19:03:00.374Z,95667.28
2023-03-17T19:05:28.836Z,95686.41
2023-03-17T19:07:58.589Z,95674.97
2023-03-17T19:10:26.875Z,95686.94
2023-03-17T19:12:55.550Z,95694.63
2023-03-17T19:15:23.903Z,95695.16
2023-03-17T19:17:52.286Z,95686.13
2023-03-17T19:20:20.839Z,95698.09
2023-03-17T19:22:49.220Z,95662.97
2023-03-17T19:25:19.117Z,95618.13
2023-03-17T19:27:47.473Z,95695.44
2023-03-17T19:30:16.306Z,95694.13
2023-03-17T19:32:45.013Z,95686.16
2023-03-17T19:35:13.329Z,95665.19
2023-03-17T19:37:41.643Z,95691.72
2023-03-17T19:40:11.425Z,95690.16
2023-03-17T19:42:41.589Z,95641.81
2023-03-17T19:45:10.886Z,95682.97
2023-03-17T19:47:39.428Z,95685.88
2023-03-17T19:50:09.040Z,95624.31
2023-03-17T19:52:37.374Z,95684.53
2023-03-17T19:55:08.306Z,95689.84
2023-03-17T19:57:36.852Z,95663.59
2023-03-17T20:00:09.044Z,95671.56
2023-03-17T20:02:37.512Z,95689.84
2023-03-17T20:05:06.760Z,95642.06
2023-03-17T20:07:35.628Z,95687.16
2023-03-17T20:10:04.161Z,95677.78
2023-03-17T20:12:33.005Z,95658.31
2023-03-17T20:15:01.783Z,95689.44
2023-03-17T20:17:31.536Z,95692.06
2023-03-17T20:20:00.451Z,95689.41
2023-03-17T20:22:29.018Z,95685.81
2023-03-17T20:24:57.364Z,95658.09
2023-03-17T20:27:25.652Z,95702.50
2023-03-17T20:29:53.964Z,95697.78
2023-03-17T20:32:22.305Z,95702.38
2023-03-17T20:34:52.067Z,95703.38
2023-03-17T20:37:20.407Z,95696.31
2023-03-17T20:39:48.742Z,95701.41
2023-03-17T20:42:20.160Z,95699.00
2023-03-17T20:44:52.953Z,95696.41
2023-03-17T20:47:21.637Z,95696.69
2023-03-17T20:49:51.291Z,95685.28
2023-03-17T20:52:20.004Z,95698.53
2023-03-17T20:54:48.751Z,95691.91
2023-03-17T20:57:17.223Z,95699.88
2023-03-17T20:59:45.723Z,95693.75
2023-03-17T21:02:18.444Z,95696.13
2023-03-17T21:04:49.059Z,95695.34
2023-03-17T21:07:20.121Z,95688.41
2023-03-17T21:09:48.959Z,95633.69
2023-03-17T21:12:19.670Z,95690.78
2023-03-17T21:14:49.306Z,95688.41
2023-03-17T21:17:18.604Z,95575.69
2023-03-17T21:19:47.538Z,95689.38
2023-03-17T21:22:16.168Z,95685.97
2023-03-17T21:24:45.938Z,95675.94
2023-03-17T21:27:14.319Z,95552.81
2023-03-17T21:29:42.747Z,95549.56
2023-03-17T21:32:11.202Z,95679.75
2023-03-17T21:34:39.399Z,95677.88
2023-03-17T21:37:08.066Z,95602.34
2023-03-17T21:39:36.923Z,95675.22
2023-03-17T21:42:09.108Z,95677.16
2023-03-17T21:44:37.425Z,95671.03
2023-03-17T21:47:06.261Z,95669.19
2023-03-17T21:49:34.579Z,95664.94
2023-03-17T21:52:02.776Z,95657.28
2023-03-17T21:54:31.708Z,95636.25
2023-03-17T21:56:59.969Z,95666.56
2023-03-17T21:59:31.954Z,95664.38
2023-03-17T22:02:00.276Z,95659.91
2023-03-17T22:04:30.054Z,95662.25
2023-03-17T22:06:59.042Z,95666.50
2023-03-17T22:09:27.883Z,95655.00
2023-03-17T22:11:56.194Z,95657.13
2023-03-17T22:14:24.503Z,95651.09
2023-03-17T22:16:54.490Z,95655.59
2023-03-17T22:19:22.771Z,95653.66
2023-03-17T22:21:51.821Z,95652.34
2023-03-17T22:24:20.614Z,95632.69
2023-03-17T22:26:49.758Z,95611.66
2023-03-17T22:29:18.118Z,95665.16
2023-03-17T22:31:47.076Z,95662.13
2023-03-17T22:34:17.494Z,95653.16
2023-03-17T22:36:45.680Z,95656.84
2023-03-17T22:39:14.370Z,95656.44
2023-03-17T22:41:43.027Z,95657.34
2023-03-17T22:44:12.397Z,95651.34
2023-03-17T22:46:41.695Z,95648.94
2023-03-17T22:49:10.203Z,95653.69
2023-03-17T22:51:41.463Z,95645.47
2023-03-17T22:54:11.425Z,95645.81
2023-03-17T22:56:40.033Z,95641.22
2023-03-17T22:59:08.378Z,95644.84
2023-03-17T23:01:36.776Z,95643.59
2023-03-17T23:04:05.124Z,95636.25
2023-03-17T23:06:33.550Z,95649.19
2023-03-17T23:09:04.935Z,95633.25
2023-03-17T23:11:33.555Z,95653.19
2023-03-17T23:14:02.052Z,95654.34
2023-03-17T23:16:30.544Z,95656.47
2023-03-17T23:18:59.033Z,95656.75
2023-03-17T23:21:31.032Z,95573.94
2023-03-17T23:23:59.425Z,95639.56
2023-03-17T23:26:30.194Z,95646.00
2023-03-17T23:28:58.496Z,95642.06
2023-03-17T23:31:27.559Z,95644.28
2023-03-17T23:33:55.862Z,95640.78
2023-03-17T23:36:24.146Z,95638.44
2023-03-17T23:38:52.682Z,95636.63
2023-03-17T23:41:21.365Z,95639.41
2023-03-17T23:43:51.212Z,95625.88
2023-03-17T23:46:20.741Z,95632.34
2023-03-17T23:48:50.180Z,95633.09
2023-03-17T23:51:18.453Z,95633.25
2023-03-17T23:53:48.106Z,95628.56
2023-03-17T23:56:16.587Z,95633.34
2023-03-17T23:58:44.868Z,95625.19
